Wetterdaten: Woche 11.10.21 - 17.10.21 (KW41)
Datum Zeit Temp. Aussen Temp. o. S. Temp +5cm Feuchte Auss Luftdruck Regen Sonnenschein Regendauer Solar Windben Empfang
11.10.2021 00:00 9,0 C 8,5 C 7,7 C 94 % 1026,7 hPa 0,0 l/m 0,00 h 0,00 h 0 W/m 0,0 km/h (0 Bft) 95,83 %
11.10.2021 01:00 9,0 C 8,0 C 7,5 C 94 % 1026,2 hPa 0,0 l/m 0,00 h 0,00 h 0 W/m 0,1 km/h (0 Bft) 97,09 %
11.10.2021 02:00 9,4 C 9,1 C 8,5 C 95 % 1026,1 hPa 0,0 l/m 0,00 h 0,00 h 0 W/m 1,6 km/h (1 Bft) 97,43 %
11.10.2021 03:00 10,4 C 10,0 C 9,0 C 96 % 1026,0 hPa 0,2 l/m 0,00 h 0,13 h 0 W/m 3,5 km/h (1 Bft) 97,80 %
11.10.2021 04:00 10,8 C 10,0 C 9,5 C 96 % 1025,8 hPa 0,0 l/m 0,00 h 0,03 h 0 W/m 3,4 km/h (1 Bft) 96,69 %
11.10.2021 05:00 11,1 C 10,5 C 9,8 C 97 % 1025,9 hPa 0,0 l/m 0,00 h 0,00 h 0 W/m 3,9 km/h (1 Bft) 99,29 %
11.10.2021 06:00 11,0 C 10,1 C 9,9 C 97 % 1025,8 hPa 0,0 l/m 0,00 h 0,00 h 0 W/m 2,8 km/h (1 Bft) 96,61 %
11.10.2021 07:00 11,1 C 10,6 C 10,0 C 97 % 1026,1 hPa 0,0 l/m 0,00 h 0,00 h 0 W/m 3,0 km/h (1 Bft) 97,44 %
11.10.2021 08:00 10,9 C 10,1 C 9,9 C 97 % 1026,3 hPa 0,0 l/m 0,00 h 0,00 h 23 W/m 1,9 km/h (1 Bft) 97,10 %
11.10.2021 09:00 10,8 C 10,8 C 10,3 C 98 % 1026,7 hPa 0,0 l/m 0,00 h 0,00 h 85 W/m 3,4 km/h (1 Bft) 95,96 %
11.10.2021 10:00 11,5 C 12,3 C 11,6 C 97 % 1027,2 hPa 0,0 l/m 0,07 h 0,00 h 162 W/m 6,2 km/h (2 Bft) 98,65 %
11.10.2021 11:00 12,7 C 13,0 C 12,3 C 91 % 1027,3 hPa 0,0 l/m 0,13 h 0,00 h 170 W/m 7,1 km/h (2 Bft) 98,43 %
11.10.2021 12:00 13,6 C 14,0 C 12,9 C 84 % 1027,2 hPa 0,0 l/m 0,60 h 0,00 h 254 W/m 13,7 km/h (3 Bft) 96,24 %
11.10.2021 13:00 14,4 C 15,1 C 13,3 C 81 % 1027,1 hPa 0,0 l/m 0,73 h 0,00 h 292 W/m 14,4 km/h (3 Bft) 97,73 %
11.10.2021 14:00 14,8 C 15,1 C 13,1 C 81 % 1026,8 hPa 0,0 l/m 0,23 h 0,00 h 203 W/m 13,4 km/h (3 Bft) 97,36 %
11.10.2021 15:00 15,0 C 15,1 C 13,1 C 80 % 1026,3 hPa 0,0 l/m 0,67 h 0,00 h 293 W/m 10,6 km/h (2 Bft) 97,87 %
11.10.2021 16:00 14,9 C 14,9 C 12,6 C 79 % 1026,0 hPa 0,0 l/m 0,70 h 0,00 h 212 W/m 10,5 km/h (2 Bft) 94,90 %
11.10.2021 17:00 14,6 C 14,1 C 12,3 C 78 % 1025,8 hPa 0,0 l/m 0,20 h 0,00 h 80 W/m 8,8 km/h (2 Bft) 98,51 %
11.10.2021 18:00 13,7 C 12,7 C 11,0 C 83 % 1025,9 hPa 0,2 l/m 0,00 h 0,27 h 11 W/m 7,4 km/h (2 Bft) 98,09 %
11.10.2021 19:00 12,5 C 11,5 C 10,2 C 88 % 1026,1 hPa 0,0 l/m 0,00 h 0,00 h 0 W/m 2,5 km/h (1 Bft) 96,94 %
11.10.2021 20:00 11,5 C 10,3 C 9,0 C 89 % 1026,1 hPa 0,0 l/m 0,00 h 0,00 h 0 W/m 1,0 km/h (0 Bft) 98,08 %
11.10.2021 21:00 10,7 C 9,6 C 8,5 C 90 % 1026,0 hPa 0,0 l/m 0,00 h 0,00 h 0 W/m 1,7 km/h (1 Bft) 98,29 %
11.10.2021 22:00 9,9 C 8,8 C 8,0 C 91 % 1026,0 hPa 0,0 l/m 0,00 h 0,00 h 0 W/m 0,4 km/h (0 Bft) 98,38 %
11.10.2021 23:00 10,1 C 9,4 C 8,8 C 93 % 1025,8 hPa 0,0 l/m 0,00 h 0,00 h 0 W/m 0,9 km/h (0 Bft) 94,52 %
12.10.2021 00:00 10,3 C 9,7 C 8,9 C 93 % 1025,7 hPa 0,0 l/m 0,00 h 0,00 h 0 W/m 0,2 km/h (0 Bft) 98,70 %
12.10.2021 01:00 10,4 C 10,0 C 8,9 C 93 % 1025,1 hPa 0,0 l/m 0,00 h 0,00 h 0 W/m 3,5 km/h (1 Bft) 98,22 %
12.10.2021 02:00 10,5 C 9,6 C 8,9 C 94 % 1024,7 hPa 0,6 l/m 0,00 h 0,87 h 0 W/m 3,8 km/h (1 Bft) 95,58 %
12.10.2021 03:00 10,4 C 9,4 C 8,9 C 95 % 1024,1 hPa 0,6 l/m 0,00 h 0,90 h 0 W/m 4,8 km/h (1 Bft) 98,08 %
12.10.2021 04:00 10,1 C 9,4 C 8,9 C 96 % 1023,5 hPa 0,0 l/m 0,00 h 0,33 h 0 W/m 3,0 km/h (1 Bft) 98,51 %
12.10.2021 05:00 9,9 C 9,0 C 8,9 C 96 % 1022,7 hPa 0,2 l/m 0,00 h 0,00 h 0 W/m 4,5 km/h (1 Bft) 95,80 %
12.10.2021 06:00 9,6 C 8,9 C 8,9 C 97 % 1022,1 hPa 0,0 l/m 0,00 h 0,00 h 0 W/m 5,1 km/h (1 Bft) 99,04 %
12.10.2021 07:00 9,6 C 8,9 C 8,9 C 97 % 1021,6 hPa 0,0 l/m 0,00 h 0,00 h 0 W/m 6,3 km/h (2 Bft) 96,73 %
12.10.2021 08:00 9,7 C 9,2 C 8,9 C 97 % 1021,2 hPa 0,2 l/m 0,00 h 0,13 h 16 W/m 9,3 km/h (2 Bft) 97,51 %
12.10.2021 09:00 10,0 C 9,4 C 9,2 C 97 % 1020,8 hPa 0,2 l/m 0,00 h 0,37 h 33 W/m 8,6 km/h (2 Bft) 98,01 %
12.10.2021 10:00 10,3 C 9,7 C 9,7 C 97 % 1020,4 hPa 1,4 l/m 0,00 h 0,80 h 57 W/m 9,5 km/h (2 Bft) 98,01 %
12.10.2021 11:00 10,5 C 10,0 C 10,1 C 97 % 1019,9 hPa 2,0 l/m 0,00 h 0,77 h 79 W/m 8,8 km/h (2 Bft) 96,58 %
12.10.2021 12:00 11,5 C 11,6 C 11,1 C 98 % 1019,5 hPa 0,2 l/m 0,17 h 0,33 h 166 W/m 11,6 km/h (2 Bft) 98,15 %
12.10.2021 13:00 12,0 C 11,6 C 11,5 C 97 % 1018,9 hPa 0,4 l/m 0,00 h 0,43 h 131 W/m 7,9 km/h (2 Bft) 97,44 %
12.10.2021 14:00 12,8 C 13,4 C 12,3 C 97 % 1018,3 hPa 0,0 l/m 0,47 h 0,00 h 240 W/m 12,0 km/h (2 Bft) 97,63 %
12.10.2021 15:00 12,9 C 12,5 C 11,7 C 94 % 1018,1 hPa 0,4 l/m 0,07 h 0,30 h 92 W/m 13,7 km/h (3 Bft) 97,58 %
12.10.2021 16:00 12,5 C 12,6 C 11,2 C 94 % 1018,4 hPa 0,2 l/m 0,53 h 0,00 h 211 W/m 10,7 km/h (2 Bft) 97,79 %
12.10.2021 17:00 12,5 C 12,0 C 10,6 C 88 % 1018,6 hPa 0,0 l/m 0,37 h 0,00 h 94 W/m 13,5 km/h (3 Bft) 97,30 %
12.10.2021 18:00 11,0 C 9,9 C 8,9 C 86 % 1019,2 hPa 0,0 l/m 0,00 h 0,00 h 15 W/m 7,6 km/h (2 Bft) 97,86 %
12.10.2021 19:00 9,9 C 8,6 C 8,2 C 89 % 1020,2 hPa 0,0 l/m 0,00 h 0,00 h 0 W/m 2,5 km/h (1 Bft) 96,21 %
12.10.2021 20:00 9,1 C 7,7 C 7,5 C 90 % 1021,0 hPa 0,0 l/m 0,00 h 0,00 h 0 W/m 1,9 km/h (1 Bft) 96,30 %
12.10.2021 21:00 8,0 C 6,9 C 6,9 C 91 % 1021,5 hPa 0,0 l/m 0,00 h 0,00 h 0 W/m 2,0 km/h (1 Bft) 97,42 %
12.10.2021 22:00 7,2 C 6,2 C 6,3 C 92 % 1021,8 hPa 0,0 l/m 0,00 h 0,00 h 0 W/m 0,6 km/h (0 Bft) 97,65 %
12.10.2021 23:00 6,6 C 5,6 C 6,1 C 93 % 1022,2 hPa 0,0 l/m 0,00 h 0,00 h 0 W/m 0,3 km/h (0 Bft) 97,93 %
13.10.2021 00:00 6,4 C 5,6 C 6,0 C 94 % 1022,4 hPa 0,0 l/m 0,00 h 0,00 h 0 W/m 1,4 km/h (1 Bft) 94,55 %
13.10.2021 01:00 6,2 C 5,4 C 5,9 C 94 % 1022,7 hPa 0,0 l/m 0,00 h 0,00 h 0 W/m 2,3 km/h (1 Bft) 97,51 %
13.10.2021 02:00 5,8 C 5,1 C 5,6 C 95 % 1022,9 hPa 0,0 l/m 0,00 h 0,00 h 0 W/m 0,9 km/h (0 Bft) 99,01 %
13.10.2021 03:00 5,7 C 5,0 C 5,7 C 95 % 1022,9 hPa 0,0 l/m 0,00 h 0,00 h 0 W/m 2,1 km/h (1 Bft) 96,85 %
13.10.2021 04:00 5,9 C 5,4 C 6,1 C 96 % 1023,3 hPa 0,0 l/m 0,00 h 0,00 h 0 W/m 2,7 km/h (1 Bft) 97,94 %
13.10.2021 05:00 5,9 C 5,2 C 6,1 C 96 % 1023,6 hPa 0,0 l/m 0,00 h 0,00 h 0 W/m 2,0 km/h (1 Bft) 97,37 %
13.10.2021 06:00 5,8 C 5,2 C 6,0 C 96 % 1023,9 hPa 0,0 l/m 0,00 h 0,00 h 0 W/m 2,5 km/h (1 Bft) 98,56 %
13.10.2021 07:00 5,4 C 4,6 C 5,6 C 96 % 1024,1 hPa 0,0 l/m 0,00 h 0,00 h 3 W/m 1,4 km/h (1 Bft) 96,08 %
13.10.2021 08:00 5,9 C 5,7 C 6,5 C 96 % 1024,7 hPa 0,0 l/m 0,00 h 0,00 h 26 W/m 2,3 km/h (1 Bft) 98,36 %
13.10.2021 09:00 7,0 C 7,2 C 7,8 C 97 % 1025,2 hPa 0,0 l/m 0,00 h 0,00 h 72 W/m 3,8 km/h (1 Bft) 98,94 %
13.10.2021 10:00 8,4 C 9,2 C 9,3 C 97 % 1025,5 hPa 0,0 l/m 0,17 h 0,00 h 158 W/m 5,9 km/h (2 Bft) 94,94 %
13.10.2021 11:00 10,5 C 14,3 C 12,4 C 94 % 1025,7 hPa 0,0 l/m 0,67 h 0,00 h 270 W/m 7,1 km/h (2 Bft) 99,43 %
13.10.2021 12:00 11,9 C 12,3 C 12,1 C 88 % 1025,9 hPa 0,0 l/m 0,03 h 0,00 h 162 W/m 10,8 km/h (2 Bft) 98,21 %
13.10.2021 13:00 13,0 C 13,5 C 12,4 C 84 % 1026,1 hPa 0,0 l/m 0,40 h 0,00 h 241 W/m 10,7 km/h (2 Bft) 95,94 %
13.10.2021 14:00 13,0 C 13,2 C 11,8 C 81 % 1026,0 hPa 0,0 l/m 0,10 h 0,00 h 183 W/m 11,8 km/h (2 Bft) 97,79 %
13.10.2021 15:00 12,9 C 13,0 C 11,4 C 81 % 1025,9 hPa 0,0 l/m 0,30 h 0,00 h 180 W/m 10,8 km/h (2 Bft) 98,58 %
13.10.2021 16:00 13,2 C 13,1 C 11,4 C 80 % 1025,9 hPa 0,0 l/m 0,00 h 0,00 h 106 W/m 8,4 km/h (2 Bft) 95,87 %
13.10.2021 17:00 13,0 C 12,6 C 10,7 C 78 % 1026,1 hPa 0,0 l/m 0,17 h 0,00 h 69 W/m 6,0 km/h (2 Bft) 96,96 %
13.10.2021 18:00 12,5 C 11,7 C 10,3 C 81 % 1026,4 hPa 0,0 l/m 0,10 h 0,00 h 21 W/m 5,2 km/h (1 Bft) 96,39 %
13.10.2021 19:00 11,7 C 10,7 C 9,5 C 85 % 1026,4 hPa 0,0 l/m 0,00 h 0,00 h 0 W/m 2,5 km/h (1 Bft) 97,37 %
13.10.2021 20:00 11,4 C 10,6 C 9,5 C 87 % 1026,7 hPa 0,0 l/m 0,00 h 0,00 h 0 W/m 1,9 km/h (1 Bft) 98,36 %
13.10.2021 21:00 11,1 C 10,2 C 9,1 C 88 % 1026,9 hPa 0,0 l/m 0,00 h 0,00 h 0 W/m 0,4 km/h (0 Bft) 97,79 %
13.10.2021 22:00 10,9 C 10,2 C 9,4 C 90 % 1027,1 hPa 0,0 l/m 0,00 h 0,00 h 0 W/m 3,1 km/h (1 Bft) 96,73 %
13.10.2021 23:00 10,9 C 10,0 C 9,5 C 90 % 1027,2 hPa 0,0 l/m 0,00 h 0,00 h 0 W/m 1,1 km/h (0 Bft) 99,64 %
14.10.2021 00:00 10,6 C 10,0 C 9,4 C 91 % 1027,0 hPa 0,0 l/m 0,00 h 0,00 h 0 W/m 3,0 km/h (1 Bft) 95,72 %
14.10.2021 01:00 10,6 C 10,0 C 9,5 C 90 % 1026,7 hPa 0,0 l/m 0,00 h 0,00 h 0 W/m 5,0 km/h (1 Bft) 98,29 %
14.10.2021 02:00 10,6 C 10,0 C 9,5 C 89 % 1026,5 hPa 0,0 l/m 0,00 h 0,00 h 0 W/m 6,1 km/h (2 Bft) 98,58 %
14.10.2021 03:00 10,6 C 10,0 C 9,5 C 87 % 1026,1 hPa 0,0 l/m 0,00 h 0,00 h 0 W/m 7,4 km/h (2 Bft) 96,22 %
14.10.2021 04:00 10,2 C 9,2 C 8,6 C 91 % 1025,9 hPa 0,0 l/m 0,00 h 0,13 h 0 W/m 8,0 km/h (2 Bft) 98,58 %
14.10.2021 05:00 9,6 C 9,1 C 8,4 C 94 % 1025,8 hPa 0,2 l/m 0,00 h 0,00 h 0 W/m 8,6 km/h (2 Bft) 98,86 %
14.10.2021 06:00 9,7 C 9,4 C 8,7 C 95 % 1025,7 hPa 0,0 l/m 0,00 h 0,00 h 0 W/m 9,2 km/h (2 Bft) 95,69 %
14.10.2021 07:00 9,9 C 9,4 C 8,8 C 95 % 1025,5 hPa 0,0 l/m 0,00 h 0,03 h 0 W/m 9,0 km/h (2 Bft) 98,01 %
14.10.2021 08:00 9,9 C 9,4 C 8,9 C 95 % 1025,4 hPa 0,2 l/m 0,00 h 0,10 h 10 W/m 9,9 km/h (2 Bft) 98,16 %
14.10.2021 09:00 10,1 C 9,4 C 8,9 C 96 % 1025,4 hPa 0,0 l/m 0,00 h 0,00 h 21 W/m 9,9 km/h (2 Bft) 95,73 %
14.10.2021 10:00 10,4 C 10,3 C 9,5 C 96 % 1025,6 hPa 0,0 l/m 0,00 h 0,00 h 65 W/m 9,4 km/h (2 Bft) 98,87 %
14.10.2021 11:00 10,9 C 11,0 C 10,3 C 95 % 1025,5 hPa 0,0 l/m 0,00 h 0,00 h 88 W/m 9,1 km/h (2 Bft) 97,23 %
14.10.2021 12:00 11,6 C 11,6 C 10,8 C 94 % 1025,2 hPa 0,0 l/m 0,00 h 0,00 h 94 W/m 11,8 km/h (2 Bft) 97,44 %
14.10.2021 13:00 12,7 C 12,9 C 12,0 C 91 % 1024,7 hPa 0,0 l/m 0,00 h 0,00 h 173 W/m 14,3 km/h (3 Bft) 98,36 %
14.10.2021 14:00 13,9 C 14,2 C 13,0 C 88 % 1024,0 hPa 0,0 l/m 0,30 h 0,00 h 215 W/m 14,3 km/h (3 Bft) 97,58 %
14.10.2021 15:00 15,2 C 15,2 C 13,7 C 84 % 1023,5 hPa 0,0 l/m 0,30 h 0,00 h 184 W/m 12,2 km/h (2 Bft) 96,72 %
14.10.2021 16:00 15,1 C 14,7 C 13,4 C 83 % 1023,0 hPa 0,0 l/m 0,00 h 0,00 h 108 W/m 12,2 km/h (2 Bft) 98,58 %
14.10.2021 17:00 14,7 C 14,3 C 12,7 C 83 % 1022,6 hPa 0,0 l/m 0,43 h 0,00 h 84 W/m 13,2 km/h (3 Bft) 96,94 %
14.10.2021 18:00 13,9 C 13,0 C 11,8 C 85 % 1022,3 hPa 0,0 l/m 0,00 h 0,00 h 10 W/m 7,4 km/h (2 Bft) 96,88 %
14.10.2021 19:00 13,3 C 12,5 C 11,2 C 87 % 1022,2 hPa 0,0 l/m 0,00 h 0,00 h 0 W/m 8,4 km/h (2 Bft) 98,87 %
14.10.2021 20:00 12,9 C 12,2 C 11,1 C 87 % 1021,7 hPa 0,0 l/m 0,00 h 0,00 h 0 W/m 8,5 km/h (2 Bft) 95,67 %
14.10.2021 21:00 12,8 C 12,2 C 11,1 C 86 % 1021,3 hPa 0,0 l/m 0,00 h 0,00 h 0 W/m 10,2 km/h (2 Bft) 97,17 %
14.10.2021 22:00 12,7 C 12,2 C 10,8 C 85 % 1021,0 hPa 0,0 l/m 0,00 h 0,00 h 0 W/m 11,6 km/h (2 Bft) 99,08 %
14.10.2021 23:00 12,7 C 12,2 C 10,9 C 84 % 1020,6 hPa 0,0 l/m 0,00 h 0,00 h 0 W/m 14,7 km/h (3 Bft) 95,16 %
15.10.2021 00:00 12,7 C 12,2 C 10,6 C 83 % 1019,8 hPa 0,0 l/m 0,00 h 0,00 h 0 W/m 17,3 km/h (3 Bft) 98,76 %
15.10.2021 01:00 12,3 C 11,7 C 10,4 C 82 % 1019,1 hPa 0,0 l/m 0,00 h 0,00 h 0 W/m 19,1 km/h (3 Bft) 98,65 %
15.10.2021 02:00 11,7 C 11,0 C 9,8 C 81 % 1018,6 hPa 0,0 l/m 0,00 h 0,00 h 0 W/m 18,0 km/h (3 Bft) 95,31 %
15.10.2021 03:00 10,9 C 10,2 C 9,1 C 83 % 1017,9 hPa 0,0 l/m 0,00 h 0,00 h 0 W/m 16,6 km/h (3 Bft) 98,28 %
15.10.2021 04:00 10,6 C 10,0 C 8,9 C 85 % 1017,1 hPa 0,0 l/m 0,00 h 0,00 h 0 W/m 16,3 km/h (3 Bft) 99,04 %
15.10.2021 05:00 10,8 C 10,2 C 8,9 C 85 % 1016,6 hPa 0,0 l/m 0,00 h 0,00 h 0 W/m 17,1 km/h (3 Bft) 94,95 %
15.10.2021 06:00 10,9 C 10,6 C 8,9 C 85 % 1016,0 hPa 0,0 l/m 0,00 h 0,00 h 0 W/m 17,5 km/h (3 Bft) 99,82 %
15.10.2021 07:00 10,9 C 10,6 C 8,9 C 85 % 1015,7 hPa 0,0 l/m 0,00 h 0,00 h 0 W/m 18,0 km/h (3 Bft) 97,26 %
15.10.2021 08:00 11,1 C 10,6 C 9,5 C 86 % 1015,7 hPa 0,0 l/m 0,00 h 0,00 h 20 W/m 15,0 km/h (3 Bft) 96,87 %
15.10.2021 09:00 11,5 C 11,1 C 9,7 C 87 % 1015,7 hPa 0,0 l/m 0,00 h 0,00 h 35 W/m 13,7 km/h (3 Bft) 97,02 %
15.10.2021 10:00 12,1 C 11,9 C 10,3 C 88 % 1016,0 hPa 0,2 l/m 0,00 h 0,10 h 71 W/m 12,3 km/h (3 Bft) 97,82 %
15.10.2021 11:00 12,1 C 11,4 C 9,8 C 93 % 1016,9 hPa 0,8 l/m 0,00 h 0,13 h 72 W/m 11,9 km/h (2 Bft) 96,40 %
15.10.2021 12:00 11,7 C 11,6 C 10,0 C 94 % 1017,7 hPa 0,0 l/m 0,00 h 0,30 h 124 W/m 16,2 km/h (3 Bft) 99,63 %
15.10.2021 13:00 12,5 C 13,5 C 10,9 C 90 % 1018,4 hPa 0,0 l/m 0,53 h 0,00 h 253 W/m 13,5 km/h (3 Bft) 95,83 %
15.10.2021 14:00 13,5 C 14,3 C 11,7 C 82 % 1018,6 hPa 0,0 l/m 0,63 h 0,00 h 316 W/m 11,6 km/h (2 Bft) 98,08 %
15.10.2021 15:00 14,0 C 13,6 C 11,6 C 76 % 1018,8 hPa 0,0 l/m 0,43 h 0,00 h 256 W/m 11,3 km/h (2 Bft) 98,52 %
15.10.2021 16:00 13,4 C 12,9 C 11,1 C 79 % 1019,1 hPa 0,0 l/m 0,07 h 0,00 h 92 W/m 5,6 km/h (1 Bft) 96,73 %
15.10.2021 17:00 13,0 C 12,2 C 10,4 C 80 % 1019,2 hPa 0,0 l/m 0,10 h 0,00 h 49 W/m 3,3 km/h (1 Bft) 98,22 %
15.10.2021 18:00 12,5 C 11,8 C 10,2 C 80 % 1019,7 hPa 0,0 l/m 0,30 h 0,00 h 23 W/m 5,6 km/h (1 Bft) 96,06 %
15.10.2021 19:00 11,4 C 9,3 C 8,1 C 82 % 1020,7 hPa 0,0 l/m 0,00 h 0,00 h 0 W/m 0,3 km/h (0 Bft) 97,08 %
15.10.2021 20:00 9,6 C 7,8 C 7,0 C 86 % 1021,2 hPa 0,0 l/m 0,00 h 0,00 h 0 W/m 0,1 km/h (0 Bft) 97,33 %
15.10.2021 21:00 8,3 C 6,8 C 6,3 C 90 % 1021,5 hPa 0,0 l/m 0,00 h 0,00 h 0 W/m 0,0 km/h (0 Bft) 95,93 %
15.10.2021 22:00 7,2 C 5,8 C 5,6 C 91 % 1021,8 hPa 0,0 l/m 0,00 h 0,00 h 0 W/m 0,0 km/h (0 Bft) 96,55 %
15.10.2021 23:00 6,3 C 5,2 C 5,0 C 92 % 1022,1 hPa 0,0 l/m 0,00 h 0,00 h 0 W/m 0,0 km/h (0 Bft) 96,93 %
16.10.2021 00:00 5,6 C 4,5 C 4,6 C 93 % 1022,3 hPa 0,0 l/m 0,00 h 0,00 h 0 W/m 0,0 km/h (0 Bft) 97,24 %
16.10.2021 01:00 5,1 C 4,1 C 4,5 C 94 % 1022,4 hPa 0,0 l/m 0,00 h 0,00 h 0 W/m 0,0 km/h (0 Bft) 99,21 %
16.10.2021 02:00 4,7 C 3,6 C 4,0 C 94 % 1022,6 hPa 0,0 l/m 0,00 h 0,00 h 0 W/m 0,0 km/h (0 Bft) 97,01 %
16.10.2021 03:00 4,1 C 3,2 C 3,6 C 94 % 1022,4 hPa 0,0 l/m 0,00 h 0,00 h 0 W/m 0,0 km/h (0 Bft) 96,58 %
16.10.2021 04:00 3,6 C 2,8 C 3,4 C 94 % 1022,4 hPa 0,0 l/m 0,00 h 0,00 h 0 W/m 0,0 km/h (0 Bft) 97,73 %
16.10.2021 05:00 3,2 C 2,3 C 3,0 C 95 % 1022,5 hPa 0,0 l/m 0,00 h 0,00 h 0 W/m 0,0 km/h (0 Bft) 98,65 %
16.10.2021 06:00 2,8 C 2,2 C 2,8 C 95 % 1022,6 hPa 0,0 l/m 0,00 h 0,00 h 0 W/m 0,0 km/h (0 Bft) 97,79 %
16.10.2021 07:00 2,8 C 2,1 C 2,8 C 95 % 1022,7 hPa 0,2 l/m 0,00 h 0,00 h 0 W/m 0,2 km/h (0 Bft) 95,59 %
16.10.2021 08:00 2,6 C 2,4 C 2,9 C 95 % 1022,8 hPa 0,0 l/m 0,00 h 0,00 h 22 W/m 0,5 km/h (0 Bft) 95,52 %
16.10.2021 09:00 4,1 C 4,6 C 4,6 C 96 % 1023,1 hPa 0,0 l/m 0,00 h 0,00 h 81 W/m 3,2 km/h (1 Bft) 97,22 %
16.10.2021 10:00 6,4 C 7,5 C 6,9 C 97 % 1023,3 hPa 0,0 l/m 0,20 h 0,00 h 159 W/m 5,0 km/h (1 Bft) 98,33 %
16.10.2021 11:00 9,1 C 16,6 C 11,0 C 95 % 1023,4 hPa 0,0 l/m 0,43 h 0,00 h 208 W/m 6,8 km/h (2 Bft) 96,23 %
16.10.2021 12:00 11,0 C 11,9 C 10,8 C 86 % 1023,5 hPa 0,0 l/m 0,10 h 0,00 h 96 W/m 6,5 km/h (2 Bft) 99,37 %
16.10.2021 13:00 11,5 C 12,9 C 10,1 C 83 % 1023,1 hPa 0,0 l/m 0,33 h 0,00 h 218 W/m 5,7 km/h (1 Bft) 97,01 %
16.10.2021 14:00 12,3 C 13,6 C 10,3 C 75 % 1022,6 hPa 0,0 l/m 0,17 h 0,00 h 197 W/m 4,6 km/h (1 Bft) 97,93 %
16.10.2021 15:00 12,4 C 12,8 C 10,6 C 70 % 1022,2 hPa 0,0 l/m 0,00 h 0,00 h 172 W/m 4,7 km/h (1 Bft) 95,26 %
16.10.2021 16:00 12,5 C 12,1 C 10,2 C 70 % 1021,9 hPa 0,0 l/m 0,00 h 0,00 h 109 W/m 3,4 km/h (1 Bft) 98,22 %
16.10.2021 17:00 12,2 C 11,4 C 9,4 C 71 % 1021,8 hPa 0,0 l/m 0,00 h 0,00 h 50 W/m 1,8 km/h (1 Bft) 97,45 %
16.10.2021 18:00 11,2 C 8,9 C 7,3 C 78 % 1021,6 hPa 0,0 l/m 0,00 h 0,00 h 14 W/m 0,0 km/h (0 Bft) 97,96 %
16.10.2021 19:00 9,1 C 6,9 C 5,7 C 83 % 1021,5 hPa 0,0 l/m 0,00 h 0,00 h 0 W/m 0,3 km/h (0 Bft) 97,58 %
16.10.2021 20:00 7,5 C 5,7 C 4,8 C 87 % 1021,9 hPa 0,0 l/m 0,00 h 0,00 h 0 W/m 0,0 km/h (0 Bft) 96,01 %
16.10.2021 21:00 6,5 C 5,2 C 4,3 C 90 % 1021,7 hPa 0,0 l/m 0,00 h 0,00 h 0 W/m 0,1 km/h (0 Bft) 96,81 %
16.10.2021 22:00 5,7 C 4,3 C 3,9 C 90 % 1021,8 hPa 0,0 l/m 0,00 h 0,00 h 0 W/m 0,0 km/h (0 Bft) 97,41 %
16.10.2021 23:00 5,0 C 4,0 C 3,5 C 91 % 1021,8 hPa 0,0 l/m 0,00 h 0,00 h 0 W/m 0,1 km/h (0 Bft) 99,44 %
17.10.2021 00:00 4,6 C 3,7 C 3,4 C 93 % 1021,6 hPa 0,0 l/m 0,00 h 0,00 h 0 W/m 0,8 km/h (0 Bft) 95,32 %
17.10.2021 01:00 4,6 C 3,9 C 3,5 C 93 % 1021,3 hPa 0,0 l/m 0,00 h 0,00 h 0 W/m 0,6 km/h (0 Bft) 97,56 %
17.10.2021 02:00 4,0 C 3,2 C 2,9 C 93 % 1021,4 hPa 0,0 l/m 0,00 h 0,00 h 0 W/m 0,4 km/h (0 Bft) 98,26 %
17.10.2021 03:00 3,5 C 2,6 C 2,8 C 93 % 1021,4 hPa 0,0 l/m 0,00 h 0,00 h 0 W/m 0,1 km/h (0 Bft) 98,40 %
17.10.2021 04:00 3,3 C 2,8 C 2,8 C 94 % 1021,1 hPa 0,0 l/m 0,00 h 0,00 h 0 W/m 0,1 km/h (0 Bft) 95,94 %
17.10.2021 05:00 3,8 C 3,6 C 3,4 C 95 % 1020,9 hPa 0,0 l/m 0,00 h 0,00 h 0 W/m 2,8 km/h (1 Bft) 96,48 %
17.10.2021 06:00 4,3 C 3,8 C 3,9 C 95 % 1020,7 hPa 0,0 l/m 0,00 h 0,00 h 0 W/m 3,4 km/h (1 Bft) 97,15 %
17.10.2021 07:00 4,5 C 4,2 C 4,2 C 96 % 1020,7 hPa 0,0 l/m 0,00 h 0,00 h 0 W/m 3,5 km/h (1 Bft) 96,15 %
17.10.2021 08:00 4,9 C 4,6 C 4,6 C 96 % 1021,2 hPa 0,0 l/m 0,00 h 0,00 h 21 W/m 1,4 km/h (1 Bft) 95,19 %
17.10.2021 09:00 5,6 C 5,9 C 5,7 C 97 % 1021,6 hPa 0,0 l/m 0,00 h 0,00 h 72 W/m 2,3 km/h (1 Bft) 99,71 %
17.10.2021 10:00 6,9 C 7,7 C 7,2 C 97 % 1021,8 hPa 0,0 l/m 0,00 h 0,00 h 135 W/m 4,2 km/h (1 Bft) 97,13 %
17.10.2021 11:00 8,3 C 9,5 C 8,5 C 96 % 1021,7 hPa 0,0 l/m 0,33 h 0,00 h 201 W/m 7,1 km/h (2 Bft) 97,01 %
17.10.2021 12:00 11,0 C 12,3 C 10,7 C 86 % 1021,4 hPa 0,0 l/m 0,63 h 0,00 h 236 W/m 11,1 km/h (2 Bft) 98,45 %
17.10.2021 13:00 13,4 C 14,2 C 11,7 C 74 % 1021,4 hPa 0,0 l/m 0,90 h 0,00 h 265 W/m 8,9 km/h (2 Bft) 97,22 %
17.10.2021 14:00 14,1 C 14,7 C 11,5 C 69 % 1021,0 hPa 0,0 l/m 1,00 h 0,00 h 275 W/m 7,8 km/h (2 Bft) 96,51 %
17.10.2021 15:00 14,5 C 14,6 C 11,7 C 67 % 1020,6 hPa 0,0 l/m 1,00 h 0,00 h 258 W/m 7,3 km/h (2 Bft) 98,22 %
17.10.2021 16:00 14,5 C 14,3 C 11,2 C 64 % 1020,6 hPa 0,0 l/m 1,00 h 0,00 h 162 W/m 8,3 km/h (2 Bft) 98,93 %
17.10.2021 17:00 14,1 C 13,1 C 10,6 C 66 % 1020,5 hPa 0,0 l/m 0,00 h 0,00 h 53 W/m 3,8 km/h (1 Bft) 95,84 %
17.10.2021 18:00 13,2 C 11,1 C 8,9 C 73 % 1020,9 hPa 0,0 l/m 0,00 h 0,00 h 9 W/m 0,1 km/h (0 Bft) 98,26 %
17.10.2021 19:00 12,0 C 10,2 C 8,3 C 77 % 1021,2 hPa 0,0 l/m 0,00 h 0,00 h 0 W/m 0,0 km/h (0 Bft) 97,29 %
17.10.2021 20:00 11,2 C 9,4 C 7,6 C 82 % 1021,4 hPa 0,0 l/m 0,00 h 0,00 h 0 W/m 0,0 km/h (0 Bft) 98,09 %
17.10.2021 21:00 10,1 C 8,3 C 7,2 C 85 % 1021,8 hPa 0,0 l/m 0,00 h 0,00 h 0 W/m 0,0 km/h (0 Bft) 96,49 %
17.10.2021 22:00 9,4 C 8,2 C 7,0 C 88 % 1022,0 hPa 0,0 l/m 0,00 h 0,00 h 0 W/m 0,1 km/h (0 Bft) 98,08 %
17.10.2021 23:00 8,7 C 7,8 C 6,6 C 88 % 1022,1 hPa 0,0 l/m 0,00 h 0,00 h 0 W/m 2,5 km/h (1 Bft) 99,00 %
Min-Datum _ 16.10.21 16.10.21 16.10.21 17.10.21 15.10.21 - - - - 11.10.21 17.10.21
_ Min-Zeit 08:02 07:50 07:54 16:30 07:30 - - - - 00:00 07:12
Minimum _ 2,5 C 1,7 C 2,3 C 63 % 1015,6 hPa - - - - 0,0 km/h (0 Bft) 35,48 %
Max-Datum _ 14.10.21 16.10.21 16.10.21 11.10.21 11.10.21 12.10.21 11.10.21 14.10.21 15.10.21 12.10.21 11.10.21
_ Max-Zeit 15:18 11:46 11:48 09:22 10:36 11:02 12:08 04:13 14:46 15:52 01:04
Maximum _ 15,5 C 20,6 C 15,6 C 98 % 1027,4 hPa 2,0 l/m 0,07 h 0,08 h 640 W/m 29,0 km/h
NW (5 Bft)
100,00 %
Durchschnitt _ 10,0 C 9,6 C 8,7 C 89 % 1022,7 hPa #8,4 l/m #16:04 h #6:28 h 125 W/m 5,9 km/h (2 Bft) 97,41 %
© 2021 W. Hausmann